sensor_id;sensor_type;location;lat;lon;timestamp;pressure;altitude;pressure_sealevel;temperature
76901;BMP280;65859;43.020;25.096;2022-12-18T00:01:24;100084.34;;;9.72
76901;BMP280;65859;43.020;25.096;2022-12-18T00:03:52;100085.94;;;10.01
76901;BMP280;65859;43.020;25.096;2022-12-18T00:06:20;100091.41;;;9.91
76901;BMP280;65859;43.020;25.096;2022-12-18T00:08:47;100083.84;;;9.98
76901;BMP280;65859;43.020;25.096;2022-12-18T00:11:19;100084.06;;;10.15
76901;BMP280;65859;43.020;25.096;2022-12-18T00:13:46;100090.22;;;10.24
76901;BMP280;65859;43.020;25.096;2022-12-18T00:16:16;100102.31;;;10.17
76901;BMP280;65859;43.020;25.096;2022-12-18T00:18:46;100102.50;;;9.93
76901;BMP280;65859;43.020;25.096;2022-12-18T00:21:13;100099.84;;;9.93
76901;BMP280;65859;43.020;25.096;2022-12-18T00:23:42;100108.13;;;10.05
76901;BMP280;65859;43.020;25.096;2022-12-18T00:26:18;100099.84;;;9.65
76901;BMP280;65859;43.020;25.096;2022-12-18T00:28:45;100112.44;;;9.87
76901;BMP280;65859;43.020;25.096;2022-12-18T00:31:18;100115.84;;;9.74
76901;BMP280;65859;43.020;25.096;2022-12-18T00:33:44;100119.72;;;9.95
76901;BMP280;65859;43.020;25.096;2022-12-18T00:36:20;100129.34;;;10.05
76901;BMP280;65859;43.020;25.096;2022-12-18T00:38:47;100122.28;;;10.14
76901;BMP280;65859;43.020;25.096;2022-12-18T00:41:15;100131.28;;;9.99
76901;BMP280;65859;43.020;25.096;2022-12-18T00:44:03;100128.06;;;9.89
76901;BMP280;65859;43.020;25.096;2022-12-18T00:46:30;100130.13;;;10.06
76901;BMP280;65859;43.020;25.096;2022-12-18T00:48:57;100131.00;;;10.29
76901;BMP280;65859;43.020;25.096;2022-12-18T00:51:23;100140.69;;;10.33
76901;BMP280;65859;43.020;25.096;2022-12-18T00:53:51;100137.47;;;10.50
76901;BMP280;65859;43.020;25.096;2022-12-18T00:56:21;100140.84;;;10.14
76901;BMP280;65859;43.020;25.096;2022-12-18T00:58:47;100141.91;;;10.41
76901;BMP280;65859;43.020;25.096;2022-12-18T01:01:14;100143.00;;;10.12
76901;BMP280;65859;43.020;25.096;2022-12-18T01:03:40;100138.38;;;10.32
76901;BMP280;65859;43.020;25.096;2022-12-18T01:06:09;100138.78;;;10.39
76901;BMP280;65859;43.020;25.096;2022-12-18T01:08:36;100144.06;;;9.97
76901;BMP280;65859;43.020;25.096;2022-12-18T01:11:11;100147.78;;;10.10
76901;BMP280;65859;43.020;25.096;2022-12-18T01:13:39;100147.97;;;10.00
76901;BMP280;65859;43.020;25.096;2022-12-18T01:16:06;100147.03;;;10.23
76901;BMP280;65859;43.020;25.096;2022-12-18T01:18:32;100149.31;;;10.30
76901;BMP280;65859;43.020;25.096;2022-12-18T01:20:59;100155.84;;;10.33
76901;BMP280;65859;43.020;25.096;2022-12-18T01:23:25;100158.06;;;9.70
76901;BMP280;65859;43.020;25.096;2022-12-18T01:25:53;100152.69;;;9.89
76901;BMP280;65859;43.020;25.096;2022-12-18T01:28:20;100157.69;;;9.91
76901;BMP280;65859;43.020;25.096;2022-12-18T01:30:47;100164.50;;;10.24
76901;BMP280;65859;43.020;25.096;2022-12-18T01:33:13;100160.09;;;10.20
76901;BMP280;65859;43.020;25.096;2022-12-18T01:35:43;100166.59;;;9.81
76901;BMP280;65859;43.020;25.096;2022-12-18T01:38:09;100166.06;;;9.98
76901;BMP280;65859;43.020;25.096;2022-12-18T01:40:36;100163.50;;;9.79
76901;BMP280;65859;43.020;25.096;2022-12-18T01:46:43;100175.88;;;9.51
76901;BMP280;65859;43.020;25.096;2022-12-18T01:49:10;100179.50;;;9.55
76901;BMP280;65859;43.020;25.096;2022-12-18T01:51:36;100175.59;;;9.53
76901;BMP280;65859;43.020;25.096;2022-12-18T01:54:03;100180.47;;;9.45
76901;BMP280;65859;43.020;25.096;2022-12-18T01:56:30;100177.31;;;9.43
76901;BMP280;65859;43.020;25.096;2022-12-18T01:59:01;100175.44;;;9.44
76901;BMP280;65859;43.020;25.096;2022-12-18T02:01:30;100181.16;;;9.51
76901;BMP280;65859;43.020;25.096;2022-12-18T02:04:10;100183.69;;;9.42
76901;BMP280;65859;43.020;25.096;2022-12-18T02:06:41;100190.41;;;9.35
76901;BMP280;65859;43.020;25.096;2022-12-18T02:09:21;100192.44;;;9.43
76901;BMP280;65859;43.020;25.096;2022-12-18T02:12:16;100194.16;;;9.53
76901;BMP280;65859;43.020;25.096;2022-12-18T02:18:35;100183.09;;;9.27
76901;BMP280;65859;43.020;25.096;2022-12-18T02:21:07;100196.63;;;9.25
76901;BMP280;65859;43.020;25.096;2022-12-18T02:26:37;100200.06;;;9.26
76901;BMP280;65859;43.020;25.096;2022-12-18T02:32:50;100201.88;;;9.49
76901;BMP280;65859;43.020;25.096;2022-12-18T02:38:59;100211.03;;;9.38
76901;BMP280;65859;43.020;25.096;2022-12-18T02:41:26;100207.31;;;9.20
76901;BMP280;65859;43.020;25.096;2022-12-18T02:44:00;100211.00;;;9.00
76901;BMP280;65859;43.020;25.096;2022-12-18T02:46:50;100214.22;;;8.97
76901;BMP280;65859;43.020;25.096;2022-12-18T03:04:39;100237.44;;;8.81
76901;BMP280;65859;43.020;25.096;2022-12-18T03:07:23;100237.81;;;8.75
76901;BMP280;65859;43.020;25.096;2022-12-18T03:09:52;100240.63;;;8.83
76901;BMP280;65859;43.020;25.096;2022-12-18T03:12:43;100248.31;;;8.56
76901;BMP280;65859;43.020;25.096;2022-12-18T03:15:23;100255.28;;;8.47
76901;BMP280;65859;43.020;25.096;2022-12-18T03:17:58;100263.78;;;8.44
76901;BMP280;65859;43.020;25.096;2022-12-18T03:20:26;100267.59;;;8.61
76901;BMP280;65859;43.020;25.096;2022-12-18T03:26:30;100279.44;;;8.64
76901;BMP280;65859;43.020;25.096;2022-12-18T03:29:02;100285.38;;;8.80
76901;BMP280;65859;43.020;25.096;2022-12-18T03:35:09;100295.72;;;8.52
76901;BMP280;65859;43.020;25.096;2022-12-18T03:37:38;100306.19;;;8.62
76901;BMP280;65859;43.020;25.096;2022-12-18T03:40:05;100309.53;;;8.44
76901;BMP280;65859;43.020;25.096;2022-12-18T03:51:37;100326.50;;;8.38
76901;BMP280;65859;43.020;25.096;2022-12-18T03:54:07;100326.81;;;8.66
76901;BMP280;65859;43.020;25.096;2022-12-18T03:56:42;100335.81;;;8.64
76901;BMP280;65859;43.020;25.096;2022-12-18T03:59:13;100334.22;;;8.63
76901;BMP280;65859;43.020;25.096;2022-12-18T04:01:47;100344.38;;;8.51
76901;BMP280;65859;43.020;25.096;2022-12-18T04:04:16;100339.03;;;8.61
76901;BMP280;65859;43.020;25.096;2022-12-18T04:06:44;100340.84;;;8.66
76901;BMP280;65859;43.020;25.096;2022-12-18T04:09:11;100351.78;;;8.54
76901;BMP280;65859;43.020;25.096;2022-12-18T04:11:38;100346.41;;;8.64
76901;BMP280;65859;43.020;25.096;2022-12-18T04:14:05;100355.59;;;8.38
76901;BMP280;65859;43.020;25.096;2022-12-18T04:16:31;100361.84;;;8.52
76901;BMP280;65859;43.020;25.096;2022-12-18T04:18:58;100369.97;;;8.61
76901;BMP280;65859;43.020;25.096;2022-12-18T04:21:25;100369.16;;;8.60
76901;BMP280;65859;43.020;25.096;2022-12-18T04:23:51;100367.91;;;8.53
76901;BMP280;65859;43.020;25.096;2022-12-18T04:26:17;100373.19;;;8.53
76901;BMP280;65859;43.020;25.096;2022-12-18T04:28:44;100382.53;;;8.45
76901;BMP280;65859;43.020;25.096;2022-12-18T04:31:12;100385.97;;;8.46
76901;BMP280;65859;43.020;25.096;2022-12-18T04:33:38;100386.19;;;8.49
76901;BMP280;65859;43.020;25.096;2022-12-18T04:36:05;100390.97;;;8.47
76901;BMP280;65859;43.020;25.096;2022-12-18T04:38:32;100388.53;;;8.22
76901;BMP280;65859;43.020;25.096;2022-12-18T04:40:58;100394.00;;;8.30
76901;BMP280;65859;43.020;25.096;2022-12-18T04:43:25;100396.66;;;8.30
76901;BMP280;65859;43.020;25.096;2022-12-18T04:45:51;100397.53;;;8.21
76901;BMP280;65859;43.020;25.096;2022-12-18T04:48:17;100404.44;;;8.11
76901;BMP280;65859;43.020;25.096;2022-12-18T04:50:44;100409.06;;;8.30
76901;BMP280;65859;43.020;25.096;2022-12-18T04:53:10;100410.13;;;8.34
76901;BMP280;65859;43.020;25.096;2022-12-18T04:55:36;100409.56;;;8.37
76901;BMP280;65859;43.020;25.096;2022-12-18T04:58:03;100410.34;;;8.37
76901;BMP280;65859;43.020;25.096;2022-12-18T05:00:29;100415.63;;;8.37
76901;BMP280;65859;43.020;25.096;2022-12-18T05:02:56;100422.91;;;8.22
76901;BMP280;65859;43.020;25.096;2022-12-18T05:05:22;100423.09;;;8.35
76901;BMP280;65859;43.020;25.096;2022-12-18T05:07:49;100427.94;;;8.18
76901;BMP280;65859;43.020;25.096;2022-12-18T05:10:15;100430.13;;;8.06
76901;BMP280;65859;43.020;25.096;2022-12-18T05:12:41;100425.88;;;8.10
76901;BMP280;65859;43.020;25.096;2022-12-18T05:15:30;100436.59;;;8.29
76901;BMP280;65859;43.020;25.096;2022-12-18T05:18:00;100439.34;;;8.14
76901;BMP280;65859;43.020;25.096;2022-12-18T05:20:27;100447.31;;;8.03
76901;BMP280;65859;43.020;25.096;2022-12-18T05:22:54;100452.00;;;8.17
76901;BMP280;65859;43.020;25.096;2022-12-18T05:25:20;100444.56;;;8.19
76901;BMP280;65859;43.020;25.096;2022-12-18T05:27:47;100454.03;;;8.30
76901;BMP280;65859;43.020;25.096;2022-12-18T05:30:14;100449.53;;;8.35
76901;BMP280;65859;43.020;25.096;2022-12-18T05:32:41;100458.97;;;8.42
76901;BMP280;65859;43.020;25.096;2022-12-18T05:35:10;100455.56;;;8.41
76901;BMP280;65859;43.020;25.096;2022-12-18T05:37:36;100462.16;;;8.44
76901;BMP280;65859;43.020;25.096;2022-12-18T05:40:03;100456.56;;;8.50
76901;BMP280;65859;43.020;25.096;2022-12-18T05:42:30;100463.53;;;8.36
76901;BMP280;65859;43.020;25.096;2022-12-18T05:44:57;100470.09;;;8.44
76901;BMP280;65859;43.020;25.096;2022-12-18T05:47:23;100474.28;;;8.50
76901;BMP280;65859;43.020;25.096;2022-12-18T05:49:49;100475.88;;;8.51
76901;BMP280;65859;43.020;25.096;2022-12-18T05:52:16;100478.16;;;8.62
76901;BMP280;65859;43.020;25.096;2022-12-18T05:54:42;100487.44;;;8.65
76901;BMP280;65859;43.020;25.096;2022-12-18T05:57:08;100481.88;;;8.61
76901;BMP280;65859;43.020;25.096;2022-12-18T05:59:35;100484.44;;;8.72
76901;BMP280;65859;43.020;25.096;2022-12-18T06:02:01;100484.78;;;8.65
76901;BMP280;65859;43.020;25.096;2022-12-18T06:04:28;100494.72;;;8.78
76901;BMP280;65859;43.020;25.096;2022-12-18T06:06:56;100499.53;;;8.76
76901;BMP280;65859;43.020;25.096;2022-12-18T06:09:22;100498.94;;;8.84
76901;BMP280;65859;43.020;25.096;2022-12-18T06:11:49;100493.66;;;8.79
76901;BMP280;65859;43.020;25.096;2022-12-18T06:14:17;100500.44;;;8.56
76901;BMP280;65859;43.020;25.096;2022-12-18T06:16:43;100512.81;;;8.66
76901;BMP280;65859;43.020;25.096;2022-12-18T06:19:14;100515.56;;;8.51
76901;BMP280;65859;43.020;25.096;2022-12-18T06:21:41;100522.41;;;8.52
76901;BMP280;65859;43.020;25.096;2022-12-18T06:24:08;100517.97;;;8.42
76901;BMP280;65859;43.020;25.096;2022-12-18T06:26:36;100527.75;;;8.42
76901;BMP280;65859;43.020;25.096;2022-12-18T06:29:03;100526.38;;;8.54
76901;BMP280;65859;43.020;25.096;2022-12-18T06:31:29;100542.78;;;8.51
76901;BMP280;65859;43.020;25.096;2022-12-18T06:33:55;100541.69;;;8.57
76901;BMP280;65859;43.020;25.096;2022-12-18T06:36:22;100544.53;;;8.76
76901;BMP280;65859;43.020;25.096;2022-12-18T06:38:49;100543.13;;;8.84
76901;BMP280;65859;43.020;25.096;2022-12-18T06:41:18;100551.66;;;8.71
76901;BMP280;65859;43.020;25.096;2022-12-18T06:43:44;100556.44;;;8.69
76901;BMP280;65859;43.020;25.096;2022-12-18T06:46:11;100560.25;;;8.52
76901;BMP280;65859;43.020;25.096;2022-12-18T06:48:38;100561.31;;;8.51
76901;BMP280;65859;43.020;25.096;2022-12-18T06:51:05;100574.53;;;8.51
76901;BMP280;65859;43.020;25.096;2022-12-18T06:53:32;100577.16;;;8.56
76901;BMP280;65859;43.020;25.096;2022-12-18T06:56:03;100579.25;;;8.64
76901;BMP280;65859;43.020;25.096;2022-12-18T06:58:30;100572.31;;;8.74
76901;BMP280;65859;43.020;25.096;2022-12-18T07:01:01;100581.31;;;8.68
76901;BMP280;65859;43.020;25.096;2022-12-18T07:03:28;100575.81;;;8.59
76901;BMP280;65859;43.020;25.096;2022-12-18T07:05:54;100585.25;;;8.75
76901;BMP280;65859;43.020;25.096;2022-12-18T07:08:20;100589.59;;;8.61
76901;BMP280;65859;43.020;25.096;2022-12-18T07:10:51;100582.31;;;8.82
76901;BMP280;65859;43.020;25.096;2022-12-18T07:13:17;100588.06;;;8.89
76901;BMP280;65859;43.020;25.096;2022-12-18T07:15:44;100589.19;;;8.78
76901;BMP280;65859;43.020;25.096;2022-12-18T07:18:11;100597.59;;;8.90
76901;BMP280;65859;43.020;25.096;2022-12-18T07:20:39;100592.44;;;8.70
76901;BMP280;65859;43.020;25.096;2022-12-18T07:23:06;100596.91;;;8.74
76901;BMP280;65859;43.020;25.096;2022-12-18T07:25:35;100597.09;;;8.88
76901;BMP280;65859;43.020;25.096;2022-12-18T07:28:02;100596.06;;;8.79
76901;BMP280;65859;43.020;25.096;2022-12-18T07:30:29;100594.22;;;8.84
76901;BMP280;65859;43.020;25.096;2022-12-18T07:32:55;100590.78;;;8.79
76901;BMP280;65859;43.020;25.096;2022-12-18T07:35:21;100596.34;;;8.77
76901;BMP280;65859;43.020;25.096;2022-12-18T07:37:48;100601.31;;;8.89
76901;BMP280;65859;43.020;25.096;2022-12-18T07:40:14;100597.06;;;8.93
76901;BMP280;65859;43.020;25.096;2022-12-18T07:42:42;100604.16;;;9.03
76901;BMP280;65859;43.020;25.096;2022-12-18T07:45:08;100607.06;;;9.06
76901;BMP280;65859;43.020;25.096;2022-12-18T07:47:35;100604.28;;;9.22
76901;BMP280;65859;43.020;25.096;2022-12-18T07:50:03;100612.44;;;9.25
76901;BMP280;65859;43.020;25.096;2022-12-18T07:52:30;100610.84;;;9.29
76901;BMP280;65859;43.020;25.096;2022-12-18T07:54:57;100614.91;;;9.16
76901;BMP280;65859;43.020;25.096;2022-12-18T07:57:23;100622.84;;;9.16
76901;BMP280;65859;43.020;25.096;2022-12-18T07:59:50;100623.59;;;9.22
76901;BMP280;65859;43.020;25.096;2022-12-18T08:02:16;100629.63;;;9.33
76901;BMP280;65859;43.020;25.096;2022-12-18T08:04:43;100626.38;;;9.41
76901;BMP280;65859;43.020;25.096;2022-12-18T08:07:09;100622.63;;;9.47
76901;BMP280;65859;43.020;25.096;2022-12-18T08:09:35;100630.03;;;9.50
76901;BMP280;65859;43.020;25.096;2022-12-18T08:12:02;100627.88;;;9.52
76901;BMP280;65859;43.020;25.096;2022-12-18T08:14:29;100633.06;;;9.62
76901;BMP280;65859;43.020;25.096;2022-12-18T08:16:56;100639.38;;;9.71
76901;BMP280;65859;43.020;25.096;2022-12-18T08:19:22;100639.69;;;9.65
76901;BMP280;65859;43.020;25.096;2022-12-18T08:21:48;100643.69;;;9.62
76901;BMP280;65859;43.020;25.096;2022-12-18T08:24:15;100642.25;;;9.46
76901;BMP280;65859;43.020;25.096;2022-12-18T08:26:43;100636.78;;;9.32
76901;BMP280;65859;43.020;25.096;2022-12-18T08:29:12;100640.63;;;9.45
76901;BMP280;65859;43.020;25.096;2022-12-18T08:31:39;100644.84;;;9.51
76901;BMP280;65859;43.020;25.096;2022-12-18T08:34:05;100647.47;;;9.56
76901;BMP280;65859;43.020;25.096;2022-12-18T08:36:32;100657.50;;;9.59
76901;BMP280;65859;43.020;25.096;2022-12-18T08:38:58;100661.94;;;9.69
76901;BMP280;65859;43.020;25.096;2022-12-18T08:41:25;100664.06;;;9.67
76901;BMP280;65859;43.020;25.096;2022-12-18T08:43:51;100652.56;;;9.53
76901;BMP280;65859;43.020;25.096;2022-12-18T08:46:39;100651.88;;;9.66
76901;BMP280;65859;43.020;25.096;2022-12-18T08:49:10;100652.13;;;9.69
76901;BMP280;65859;43.020;25.096;2022-12-18T08:51:38;100657.50;;;9.59
76901;BMP280;65859;43.020;25.096;2022-12-18T08:54:06;100657.59;;;9.49
76901;BMP280;65859;43.020;25.096;2022-12-18T08:56:33;100651.16;;;9.55
76901;BMP280;65859;43.020;25.096;2022-12-18T08:59:00;100645.50;;;9.67
76901;BMP280;65859;43.020;25.096;2022-12-18T09:01:26;100648.72;;;9.30
76901;BMP280;65859;43.020;25.096;2022-12-18T09:03:53;100656.41;;;9.31
76901;BMP280;65859;43.020;25.096;2022-12-18T09:06:21;100643.03;;;9.12
76901;BMP280;65859;43.020;25.096;2022-12-18T09:08:48;100647.50;;;9.12
76901;BMP280;65859;43.020;25.096;2022-12-18T09:11:25;100646.75;;;9.45
76901;BMP280;65859;43.020;25.096;2022-12-18T09:13:54;100649.59;;;9.54
76901;BMP280;65859;43.020;25.096;2022-12-18T09:16:23;100658.75;;;9.38
76901;BMP280;65859;43.020;25.096;2022-12-18T09:18:51;100655.81;;;9.39
76901;BMP280;65859;43.020;25.096;2022-12-18T09:21:21;100660.56;;;9.37
76901;BMP280;65859;43.020;25.096;2022-12-18T09:23:52;100651.97;;;9.22
76901;BMP280;65859;43.020;25.096;2022-12-18T09:26:19;100659.84;;;9.32
76901;BMP280;65859;43.020;25.096;2022-12-18T09:28:46;100665.34;;;9.35
76901;BMP280;65859;43.020;25.096;2022-12-18T09:31:17;100658.25;;;9.26
76901;BMP280;65859;43.020;25.096;2022-12-18T09:33:44;100661.94;;;9.35
76901;BMP280;65859;43.020;25.096;2022-12-18T09:36:15;100663.47;;;9.41
76901;BMP280;65859;43.020;25.096;2022-12-18T09:38:41;100662.94;;;9.05
76901;BMP280;65859;43.020;25.096;2022-12-18T09:44:03;100674.06;;;9.02
76901;BMP280;65859;43.020;25.096;2022-12-18T09:46:35;100666.81;;;9.17
76901;BMP280;65859;43.020;25.096;2022-12-18T09:49:09;100666.28;;;9.21
76901;BMP280;65859;43.020;25.096;2022-12-18T09:51:42;100661.56;;;9.07
76901;BMP280;65859;43.020;25.096;2022-12-18T09:54:18;100660.81;;;8.97
76901;BMP280;65859;43.020;25.096;2022-12-18T09:56:46;100665.00;;;9.08
76901;BMP280;65859;43.020;25.096;2022-12-18T09:59:37;100667.09;;;9.16
76901;BMP280;65859;43.020;25.096;2022-12-18T10:02:19;100661.06;;;9.00
76901;BMP280;65859;43.020;25.096;2022-12-18T10:05:02;100669.56;;;9.02
76901;BMP280;65859;43.020;25.096;2022-12-18T10:08:03;100660.06;;;8.96
76901;BMP280;65859;43.020;25.096;2022-12-18T10:10:34;100662.16;;;8.99
76901;BMP280;65859;43.020;25.096;2022-12-18T10:15:54;100666.06;;;9.07
76901;BMP280;65859;43.020;25.096;2022-12-18T10:21:17;100667.16;;;9.06
76901;BMP280;65859;43.020;25.096;2022-12-18T10:26:42;100659.63;;;9.23
76901;BMP280;65859;43.020;25.096;2022-12-18T10:29:15;100665.41;;;9.25
76901;BMP280;65859;43.020;25.096;2022-12-18T10:31:42;100662.88;;;9.15
76901;BMP280;65859;43.020;25.096;2022-12-18T10:34:13;100665.72;;;9.18
76901;BMP280;65859;43.020;25.096;2022-12-18T10:36:40;100659.72;;;9.13
76901;BMP280;65859;43.020;25.096;2022-12-18T10:39:22;100664.13;;;9.23
76901;BMP280;65859;43.020;25.096;2022-12-18T10:41:49;100660.72;;;9.17
76901;BMP280;65859;43.020;25.096;2022-12-18T10:44:21;100657.59;;;9.10
76901;BMP280;65859;43.020;25.096;2022-12-18T10:46:54;100657.28;;;9.16
76901;BMP280;65859;43.020;25.096;2022-12-18T10:49:27;100663.66;;;9.15
76901;BMP280;65859;43.020;25.096;2022-12-18T10:52:19;100658.91;;;9.12
76901;BMP280;65859;43.020;25.096;2022-12-18T10:54:57;100662.56;;;9.22
76901;BMP280;65859;43.020;25.096;2022-12-18T10:57:39;100663.97;;;9.09
76901;BMP280;65859;43.020;25.096;2022-12-18T11:00:28;100664.22;;;9.12
76901;BMP280;65859;43.020;25.096;2022-12-18T11:02:55;100656.72;;;9.25
76901;BMP280;65859;43.020;25.096;2022-12-18T11:05:32;100655.19;;;9.13
76901;BMP280;65859;43.020;25.096;2022-12-18T11:08:00;100661.00;;;9.15
76901;BMP280;65859;43.020;25.096;2022-12-18T11:10:37;100661.41;;;9.33
76901;BMP280;65859;43.020;25.096;2022-12-18T11:13:17;100657.13;;;9.42
76901;BMP280;65859;43.020;25.096;2022-12-18T11:15:45;100661.38;;;9.38
76901;BMP280;65859;43.020;25.096;2022-12-18T11:18:30;100662.50;;;9.27
76901;BMP280;65859;43.020;25.096;2022-12-18T11:21:04;100661.47;;;9.62
76901;BMP280;65859;43.020;25.096;2022-12-18T11:23:34;100665.00;;;9.47
76901;BMP280;65859;43.020;25.096;2022-12-18T11:26:03;100669.91;;;9.30
76901;BMP280;65859;43.020;25.096;2022-12-18T11:28:51;100672.31;;;9.31
76901;BMP280;65859;43.020;25.096;2022-12-18T11:31:23;100667.22;;;9.35
76901;BMP280;65859;43.020;25.096;2022-12-18T11:34:20;100666.28;;;9.21
76901;BMP280;65859;43.020;25.096;2022-12-18T11:36:49;100671.31;;;9.17
76901;BMP280;65859;43.020;25.096;2022-12-18T11:39:37;100668.19;;;9.44
76901;BMP280;65859;43.020;25.096;2022-12-18T11:42:17;100667.31;;;9.25
76901;BMP280;65859;43.020;25.096;2022-12-18T11:44:48;100670.16;;;9.33
76901;BMP280;65859;43.020;25.096;2022-12-18T11:47:40;100673.09;;;9.32
76901;BMP280;65859;43.020;25.096;2022-12-18T11:52:44;100673.03;;;9.42
76901;BMP280;65859;43.020;25.096;2022-12-18T11:55:15;100674.34;;;9.39
76901;BMP280;65859;43.020;25.096;2022-12-18T11:57:58;100677.13;;;9.24
76901;BMP280;65859;43.020;25.096;2022-12-18T12:00:29;100680.03;;;9.23
76901;BMP280;65859;43.020;25.096;2022-12-18T12:03:27;100674.94;;;9.31
76901;BMP280;65859;43.020;25.096;2022-12-18T12:16:43;100680.88;;;9.13
76901;BMP280;65859;43.020;25.096;2022-12-18T12:19:53;100680.63;;;9.09
76901;BMP280;65859;43.020;25.096;2022-12-18T12:36:45;100677.38;;;9.23
76901;BMP280;65859;43.020;25.096;2022-12-18T12:39:20;100675.66;;;9.03
76901;BMP280;65859;43.020;25.096;2022-12-18T12:41:47;100673.72;;;9.08
76901;BMP280;65859;43.020;25.096;2022-12-18T12:44:41;100682.69;;;9.17
76901;BMP280;65859;43.020;25.096;2022-12-18T12:47:29;100680.84;;;9.18
76901;BMP280;65859;43.020;25.096;2022-12-18T12:49:59;100689.34;;;9.15
76901;BMP280;65859;43.020;25.096;2022-12-18T12:52:45;100697.56;;;9.13
76901;BMP280;65859;43.020;25.096;2022-12-18T12:55:22;100695.84;;;9.33
76901;BMP280;65859;43.020;25.096;2022-12-18T13:00:31;100700.22;;;9.13
76901;BMP280;65859;43.020;25.096;2022-12-18T13:03:22;100704.94;;;9.16
76901;BMP280;65859;43.020;25.096;2022-12-18T13:06:07;100703.56;;;9.29
76901;BMP280;65859;43.020;25.096;2022-12-18T13:08:54;100711.28;;;9.21
76901;BMP280;65859;43.020;25.096;2022-12-18T13:11:47;100709.13;;;9.28
76901;BMP280;65859;43.020;25.096;2022-12-18T13:14:37;100705.50;;;9.13
76901;BMP280;65859;43.020;25.096;2022-12-18T13:19:51;100722.63;;;9.31
76901;BMP280;65859;43.020;25.096;2022-12-18T13:22:23;100718.97;;;9.22
76901;BMP280;65859;43.020;25.096;2022-12-18T13:24:52;100728.06;;;9.06
76901;BMP280;65859;43.020;25.096;2022-12-18T13:38:23;100735.00;;;8.91
76901;BMP280;65859;43.020;25.096;2022-12-18T13:46:04;100734.84;;;9.22
76901;BMP280;65859;43.020;25.096;2022-12-18T13:48:37;100737.34;;;9.03
76901;BMP280;65859;43.020;25.096;2022-12-18T13:51:07;100746.03;;;9.14
76901;BMP280;65859;43.020;25.096;2022-12-18T13:53:48;100743.69;;;8.97
76901;BMP280;65859;43.020;25.096;2022-12-18T13:56:16;100746.59;;;9.01
76901;BMP280;65859;43.020;25.096;2022-12-18T13:58:43;100748.19;;;9.02
76901;BMP280;65859;43.020;25.096;2022-12-18T14:01:22;100760.06;;;9.09
76901;BMP280;65859;43.020;25.096;2022-12-18T14:03:50;100756.69;;;8.88
76901;BMP280;65859;43.020;25.096;2022-12-18T14:06:17;100756.44;;;8.95
76901;BMP280;65859;43.020;25.096;2022-12-18T14:08:44;100753.78;;;8.90
76901;BMP280;65859;43.020;25.096;2022-12-18T14:11:22;100755.41;;;8.86
76901;BMP280;65859;43.020;25.096;2022-12-18T14:13:49;100763.31;;;8.91
76901;BMP280;65859;43.020;25.096;2022-12-18T14:16:17;100760.16;;;8.94
76901;BMP280;65859;43.020;25.096;2022-12-18T14:18:53;100770.75;;;8.94
76901;BMP280;65859;43.020;25.096;2022-12-18T14:21:27;100778.16;;;8.87
76901;BMP280;65859;43.020;25.096;2022-12-18T14:24:05;100782.75;;;8.61
76901;BMP280;65859;43.020;25.096;2022-12-18T14:26:32;100793.06;;;8.52
76901;BMP280;65859;43.020;25.096;2022-12-18T14:29:28;100785.59;;;8.80
76901;BMP280;65859;43.020;25.096;2022-12-18T14:32:11;100785.81;;;8.88
76901;BMP280;65859;43.020;25.096;2022-12-18T14:34:39;100790.13;;;8.69
76901;BMP280;65859;43.020;25.096;2022-12-18T14:37:12;100797.03;;;8.65
76901;BMP280;65859;43.020;25.096;2022-12-18T14:39:39;100797.53;;;8.62
76901;BMP280;65859;43.020;25.096;2022-12-18T14:42:09;100801.78;;;8.58
76901;BMP280;65859;43.020;25.096;2022-12-18T14:44:36;100799.41;;;8.56
76901;BMP280;65859;43.020;25.096;2022-12-18T14:47:02;100806.78;;;8.70
76901;BMP280;65859;43.020;25.096;2022-12-18T14:49:33;100809.75;;;8.43
76901;BMP280;65859;43.020;25.096;2022-12-18T14:52:02;100812.13;;;8.44
76901;BMP280;65859;43.020;25.096;2022-12-18T14:54:30;100806.81;;;8.34
76901;BMP280;65859;43.020;25.096;2022-12-18T14:57:31;100811.06;;;8.50
76901;BMP280;65859;43.020;25.096;2022-12-18T14:59:50;100808.69;;;8.44
76901;BMP280;65859;43.020;25.096;2022-12-18T15:02:25;100807.91;;;8.43
76901;BMP280;65859;43.020;25.096;2022-12-18T15:05:02;100808.41;;;8.45
76901;BMP280;65859;43.020;25.096;2022-12-18T15:07:43;100805.75;;;8.40
76901;BMP280;65859;43.020;25.096;2022-12-18T15:12:43;100823.50;;;8.24
76901;BMP280;65859;43.020;25.096;2022-12-18T15:23:35;100840.94;;;8.41
76901;BMP280;65859;43.020;25.096;2022-12-18T15:26:05;100846.75;;;8.22
76901;BMP280;65859;43.020;25.096;2022-12-18T15:28:39;100845.38;;;8.04
76901;BMP280;65859;43.020;25.096;2022-12-18T15:33:45;100846.19;;;7.95
76901;BMP280;65859;43.020;25.096;2022-12-18T15:36:26;100858.59;;;7.84
76901;BMP280;65859;43.020;25.096;2022-12-18T15:38:54;100857.06;;;8.03
76901;BMP280;65859;43.020;25.096;2022-12-18T15:41:22;100865.50;;;8.16
76901;BMP280;65859;43.020;25.096;2022-12-18T15:43:50;100862.59;;;7.92
76901;BMP280;65859;43.020;25.096;2022-12-18T15:46:19;100872.91;;;7.98
76901;BMP280;65859;43.020;25.096;2022-12-18T15:48:48;100871.53;;;7.91
76901;BMP280;65859;43.020;25.096;2022-12-18T15:51:27;100872.38;;;8.06
76901;BMP280;65859;43.020;25.096;2022-12-18T15:53:56;100873.47;;;8.31
76901;BMP280;65859;43.020;25.096;2022-12-18T15:56:23;100875.25;;;8.05
76901;BMP280;65859;43.020;25.096;2022-12-18T15:59:19;100874.75;;;7.93
76901;BMP280;65859;43.020;25.096;2022-12-18T16:01:48;100878.63;;;7.75
76901;BMP280;65859;43.020;25.096;2022-12-18T16:04:16;100879.66;;;7.64
76901;BMP280;65859;43.020;25.096;2022-12-18T16:06:44;100889.16;;;7.65
76901;BMP280;65859;43.020;25.096;2022-12-18T16:09:11;100889.75;;;7.77
76901;BMP280;65859;43.020;25.096;2022-12-18T16:11:38;100893.44;;;7.76
76901;BMP280;65859;43.020;25.096;2022-12-18T16:14:21;100894.41;;;7.54
76901;BMP280;65859;43.020;25.096;2022-12-18T16:16:50;100896.63;;;7.78
76901;BMP280;65859;43.020;25.096;2022-12-18T16:19:18;100904.00;;;7.71
76901;BMP280;65859;43.020;25.096;2022-12-18T16:21:45;100910.38;;;7.80